Blue Star 2 — SYSV — position and weather

sailwx.info

Track history (hours):
 
Tides and Currents Weather Stations Pressure Air Temp Water Temp Dewpoint Dewpoint Depression Visibility Wind Speed Wind Dir Waves Ship Positions

Blue Star 2

Last reported at 2017-Nov-23 07:37 UTC. Time now 2017-Nov-23 09:28 UTC.
Position N 36°33' E 027°44'.

Length 176.1 m; beam 25.7 m; draft 6.5 m.

Type: Passenger vessel. MMSI: 239737000.

Date/timePositionNaut miles runAvg speedWind from/ knotsBaromVisibWave heightAir tempDewpointWater temp
2017-Nov-23 07:37N 36°33' E 027°44'1826.1
2017-Nov-23 06:56N 36°39' E 027°23'7410.3
2017-Nov-22 23:45N 37°17' E 026°04'622.4
2017-Nov-22 23:30N 37°18' E 025°57'1122.5
2017-Nov-22 23:00N 37°19' E 025°42'1122.1
2017-Nov-22 22:30N 37°20' E 025°29'1122.2
2017-Nov-22 22:00N 37°21' E 025°15'1122.2
2017-Nov-22 21:30N 37°25' E 025°02'4 8.4
2017-Nov-22 21:00N 37°26' E 024°57'714.3
2017-Nov-22 20:30N 37°32' E 024°51'1224.5
2017-Nov-22 20:01N 37°31' E 024°35'1224.4
2017-Nov-22 19:30N 37°30' E 024°20'  
2017-Nov-20 00:31N 37°19' E 025°45'7 0.1
2017-Nov-17 23:22N 37°18' E 025°53'822.1
2017-Nov-17 23:00N 37°19' E 025°44'1122.4
2017-Nov-17 22:30N 37°20' E 025°30'1122.3
2017-Nov-17 22:00N 37°21' E 025°16'1222.4
2017-Nov-17 21:29N 37°25' E 025°02'4 8.9
2017-Nov-17 21:00N 37°26' E 024°57'713.1
2017-Nov-17 20:30N 37°32' E 024°52'5624.7
2017-Nov-17 18:14N 37°41' E 023°42'625.3
2017-Nov-17 18:01N 37°46' E 023°39'1020.0
2017-Nov-17 17:31N 37°56' E 023°38'0 0.1
2017-Nov-17 17:00N 37°56' E 023°37'0 0.0
2017-Nov-17 16:30N 37°56' E 023°37'0 0.0
2017-Nov-17 16:00N 37°56' E 023°37'0 0.0
2017-Nov-17 15:30N 37°56' E 023°37'0 0.0
2017-Nov-17 15:00N 37°56' E 023°37'0 0.0
2017-Nov-17 14:30N 37°56' E 023°37'0 0.0
2017-Nov-17 14:00N 37°56' E 023°37'0 0.0
2017-Nov-17 13:30N 37°56' E 023°37'0 0.0
2017-Nov-17 13:00N 37°56' E 023°37'0 0.0
2017-Nov-17 12:30N 37°56' E 023°37'0 0.0
2017-Nov-17 12:00N 37°56' E 023°37'0 0.0
2017-Nov-17 11:30N 37°56' E 023°37'0 0.0
2017-Nov-17 11:00N 37°56' E 023°37'0 0.0
2017-Nov-17 10:30N 37°56' E 023°37'0 0.0
2017-Nov-17 10:00N 37°56' E 023°37'0 0.0
2017-Nov-17 09:30N 37°56' E 023°37'0 0.0
2017-Nov-17 09:00N 37°56' E 023°37'0 0.0
2017-Nov-17 08:30N 37°56' E 023°37'0 0.0
2017-Nov-17 08:00N 37°56' E 023°37'0 0.0
2017-Nov-17 07:30N 37°56' E 023°37'0 0.0
2017-Nov-17 07:00N 37°56' E 023°37'0 0.0
2017-Nov-17 06:30N 37°56' E 023°37'0 0.0
2017-Nov-17 06:00N 37°56' E 023°38'4 8.6
2017-Nov-17 05:30N 37°52' E 023°39'1122.6
2017-Nov-17 05:00N 37°42' E 023°45'2522.2
2017-Nov-17 03:53N 37°31' E 024°13'2622.1
2017-Nov-17 02:44N 37°24' E 024°44'522.3
2017-Nov-17 02:31N 37°22' E 024°49'1122.0
2017-Nov-17 02:00N 37°20' E 025°03'1122.4
2017-Nov-17 01:31N 37°19' E 025°17'1922.6
2017-Nov-17 00:39N 37°18' E 025°42'322.8
2017-Nov-17 00:30N 37°18' E 025°45'6 0.3
2017-Nov-15 23:26N 37°18' E 025°53'1022.4
2017-Nov-15 23:00N 37°19' E 025°41'1122.7
2017-Nov-15 22:30N 37°20' E 025°27'1122.3
2017-Nov-15 22:00N 37°21' E 025°13'1122.4
2017-Nov-15 21:30N 37°26' E 025°00'3 5.9
2017-Nov-15 21:00N 37°26' E 024°57'815.4
2017-Nov-15 20:30N 37°32' E 024°50'4724.9
2017-Nov-15 18:38N 37°37' E 023°51'325.7
2017-Nov-15 18:30N 37°38' E 023°47'1224.2
2017-Nov-15 18:01N 37°48' E 023°38'917.7
2017-Nov-15 17:30N 37°56' E 023°38'0 0.0
2017-Nov-15 17:00N 37°56' E 023°38'0 0.0
2017-Nov-15 16:30N 37°56' E 023°38'0 0.0
2017-Nov-15 16:00N 37°56' E 023°38'0 0.0
2017-Nov-15 15:29N 37°56' E 023°38'0 0.0
2017-Nov-15 15:00N 37°56' E 023°38'0 0.0
2017-Nov-15 14:30N 37°56' E 023°38'0 0.0
2017-Nov-15 14:00N 37°56' E 023°38'0 0.0
2017-Nov-15 13:30N 37°56' E 023°38'0 0.0
2017-Nov-15 13:00N 37°56' E 023°38'0 0.0
2017-Nov-15 12:30N 37°56' E 023°38'0 0.0
2017-Nov-15 12:00N 37°56' E 023°38'0 0.0
2017-Nov-15 11:30N 37°56' E 023°38'0 0.0
2017-Nov-15 11:00N 37°56' E 023°38'0 0.0
2017-Nov-15 10:30N 37°56' E 023°38'0 0.0
2017-Nov-15 10:00N 37°56' E 023°38'0 0.0
2017-Nov-15 09:30N 37°56' E 023°38'0 0.0
2017-Nov-15 09:00N 37°56' E 023°38'0 0.0
2017-Nov-15 08:30N 37°56' E 023°38'0 0.0
2017-Nov-15 08:00N 37°56' E 023°38'0 0.0
2017-Nov-15 07:30N 37°56' E 023°38'0 0.0
2017-Nov-15 07:00N 37°56' E 023°38'0 0.0
2017-Nov-15 06:30N 37°56' E 023°38'0 0.0
2017-Nov-15 06:00N 37°56' E 023°38'0 0.0
2017-Nov-15 05:30N 37°56' E 023°38'2 4.1
2017-Nov-15 05:01N 37°54' E 023°38'1122.5
2017-Nov-15 04:31N 37°44' E 023°43'2722.1
2017-Nov-15 03:17N 37°31' E 024°13'2522.1
2017-Nov-15 02:07N 37°24' E 024°44'322.9
2017-Nov-15 02:01N 37°23' E 024°47'1122.1
2017-Nov-15 01:30N 37°20' E 025°00'1122.3
2017-Nov-15 01:01N 37°19' E 025°14'1122.8
2017-Nov-15 00:30N 37°19' E 025°29'1122.5
2017-Nov-15 00:00N 37°18' E 025°43'8 0.3
2017-Nov-13 23:24N 37°18' E 025°53'922.5
2017-Nov-13 23:01N 37°19' E 025°43'1122.6
2017-Nov-13 22:30N 37°20' E 025°28'1122.5
2017-Nov-13 22:01N 37°21' E 025°14'  
Track history (hours):
 
Tides and Currents Weather Stations Pressure Air Temp Water Temp Dewpoint Dewpoint Depression Visibility Wind Speed Wind Dir Waves Ship Positions

Blue Star 2

Last reported at 2017-Nov-23 07:37 UTC. Time now 2017-Nov-23 09:28 UTC.
Position N 36°33' E 027°44'.

Length 176.1 m; beam 25.7 m; draft 6.5 m.

Type: Passenger vessel. MMSI: 239737000.

Date/timePositionNaut miles runAvg speedWind from/ knotsBaromVisibWave heightAir tempDewpointWater temp
2017-Nov-23 07:37N 36°33' E 027°44'1826.1
2017-Nov-23 06:56N 36°39' E 027°23'7410.3
2017-Nov-22 23:45N 37°17' E 026°04'622.4
2017-Nov-22 23:30N 37°18' E 025°57'1122.5
2017-Nov-22 23:00N 37°19' E 025°42'1122.1
2017-Nov-22 22:30N 37°20' E 025°29'1122.2
2017-Nov-22 22:00N 37°21' E 025°15'1122.2
2017-Nov-22 21:30N 37°25' E 025°02'4 8.4
2017-Nov-22 21:00N 37°26' E 024°57'714.3
2017-Nov-22 20:30N 37°32' E 024°51'1224.5
2017-Nov-22 20:01N 37°31' E 024°35'1224.4
2017-Nov-22 19:30N 37°30' E 024°20'  
2017-Nov-20 00:31N 37°19' E 025°45'7 0.1
2017-Nov-17 23:22N 37°18' E 025°53'822.1
2017-Nov-17 23:00N 37°19' E 025°44'1122.4
2017-Nov-17 22:30N 37°20' E 025°30'1122.3
2017-Nov-17 22:00N 37°21' E 025°16'1222.4
2017-Nov-17 21:29N 37°25' E 025°02'4 8.9
2017-Nov-17 21:00N 37°26' E 024°57'713.1
2017-Nov-17 20:30N 37°32' E 024°52'5624.7
2017-Nov-17 18:14N 37°41' E 023°42'625.3
2017-Nov-17 18:01N 37°46' E 023°39'1020.0
2017-Nov-17 17:31N 37°56' E 023°38'0 0.1
2017-Nov-17 17:00N 37°56' E 023°37'0 0.0
2017-Nov-17 16:30N 37°56' E 023°37'0 0.0
2017-Nov-17 16:00N 37°56' E 023°37'0 0.0
2017-Nov-17 15:30N 37°56' E 023°37'0 0.0
2017-Nov-17 15:00N 37°56' E 023°37'0 0.0
2017-Nov-17 14:30N 37°56' E 023°37'0 0.0
2017-Nov-17 14:00N 37°56' E 023°37'0 0.0
2017-Nov-17 13:30N 37°56' E 023°37'0 0.0
2017-Nov-17 13:00N 37°56' E 023°37'0 0.0
2017-Nov-17 12:30N 37°56' E 023°37'0 0.0
2017-Nov-17 12:00N 37°56' E 023°37'0 0.0
2017-Nov-17 11:30N 37°56' E 023°37'0 0.0
2017-Nov-17 11:00N 37°56' E 023°37'0 0.0
2017-Nov-17 10:30N 37°56' E 023°37'0 0.0
2017-Nov-17 10:00N 37°56' E 023°37'0 0.0
2017-Nov-17 09:30N 37°56' E 023°37'0 0.0
2017-Nov-17 09:00N 37°56' E 023°37'0 0.0
2017-Nov-17 08:30N 37°56' E 023°37'0 0.0
2017-Nov-17 08:00N 37°56' E 023°37'0 0.0
2017-Nov-17 07:30N 37°56' E 023°37'0 0.0
2017-Nov-17 07:00N 37°56' E 023°37'0 0.0
2017-Nov-17 06:30N 37°56' E 023°37'0 0.0
2017-Nov-17 06:00N 37°56' E 023°38'4 8.6
2017-Nov-17 05:30N 37°52' E 023°39'1122.6
2017-Nov-17 05:00N 37°42' E 023°45'2522.2
2017-Nov-17 03:53N 37°31' E 024°13'2622.1
2017-Nov-17 02:44N 37°24' E 024°44'522.3
2017-Nov-17 02:31N 37°22' E 024°49'1122.0
2017-Nov-17 02:00N 37°20' E 025°03'1122.4
2017-Nov-17 01:31N 37°19' E 025°17'1922.6
2017-Nov-17 00:39N 37°18' E 025°42'322.8
2017-Nov-17 00:30N 37°18' E 025°45'6 0.3
2017-Nov-15 23:26N 37°18' E 025°53'1022.4
2017-Nov-15 23:00N 37°19' E 025°41'1122.7
2017-Nov-15 22:30N 37°20' E 025°27'1122.3
2017-Nov-15 22:00N 37°21' E 025°13'1122.4
2017-Nov-15 21:30N 37°26' E 025°00'3 5.9
2017-Nov-15 21:00N 37°26' E 024°57'815.4
2017-Nov-15 20:30N 37°32' E 024°50'4724.9
2017-Nov-15 18:38N 37°37' E 023°51'325.7
2017-Nov-15 18:30N 37°38' E 023°47'1224.2
2017-Nov-15 18:01N 37°48' E 023°38'917.7
2017-Nov-15 17:30N 37°56' E 023°38'0 0.0
2017-Nov-15 17:00N 37°56' E 023°38'0 0.0
2017-Nov-15 16:30N 37°56' E 023°38'0 0.0
2017-Nov-15 16:00N 37°56' E 023°38'0 0.0
2017-Nov-15 15:29N 37°56' E 023°38'0 0.0
2017-Nov-15 15:00N 37°56' E 023°38'0 0.0
2017-Nov-15 14:30N 37°56' E 023°38'0 0.0
2017-Nov-15 14:00N 37°56' E 023°38'0 0.0
2017-Nov-15 13:30N 37°56' E 023°38'0 0.0
2017-Nov-15 13:00N 37°56' E 023°38'0 0.0
2017-Nov-15 12:30N 37°56' E 023°38'0 0.0
2017-Nov-15 12:00N 37°56' E 023°38'0 0.0
2017-Nov-15 11:30N 37°56' E 023°38'0 0.0
2017-Nov-15 11:00N 37°56' E 023°38'0 0.0
2017-Nov-15 10:30N 37°56' E 023°38'0 0.0
2017-Nov-15 10:00N 37°56' E 023°38'0 0.0
2017-Nov-15 09:30N 37°56' E 023°38'0 0.0
2017-Nov-15 09:00N 37°56' E 023°38'0 0.0
2017-Nov-15 08:30N 37°56' E 023°38'0 0.0
2017-Nov-15 08:00N 37°56' E 023°38'0 0.0
2017-Nov-15 07:30N 37°56' E 023°38'0 0.0
2017-Nov-15 07:00N 37°56' E 023°38'0 0.0
2017-Nov-15 06:30N 37°56' E 023°38'0 0.0
2017-Nov-15 06:00N 37°56' E 023°38'0 0.0
2017-Nov-15 05:30N 37°56' E 023°38'2 4.1
2017-Nov-15 05:01N 37°54' E 023°38'1122.5
2017-Nov-15 04:31N 37°44' E 023°43'2722.1
2017-Nov-15 03:17N 37°31' E 024°13'2522.1
2017-Nov-15 02:07N 37°24' E 024°44'322.9
2017-Nov-15 02:01N 37°23' E 024°47'1122.1
2017-Nov-15 01:30N 37°20' E 025°00'1122.3
2017-Nov-15 01:01N 37°19' E 025°14'1122.8
2017-Nov-15 00:30N 37°19' E 025°29'1122.5
2017-Nov-15 00:00N 37°18' E 025°43'8 0.3
2017-Nov-13 23:24N 37°18' E 025°53'922.5
2017-Nov-13 23:01N 37°19' E 025°43'1122.6
2017-Nov-13 22:30N 37°20' E 025°28'1122.5
2017-Nov-13 22:01N 37°21' E 025°14'  

Dump ship's entire track history